SKW6402 KFLG-KDFW
Flight info
| Callsign | SKW6402 |
|---|---|
| Flight time | 1h 27m |
| Altitude | 39000 |
| Route | FLG1 OATES ABQ J72 TXO TURKI VKTRY2 |
| Aircraft | CRJ7/M-SDFGIRWY/S |
Departure
| Time | 2026-05-05 01:34 |
|---|---|
| Airport | Flagstaff Pulliam Airport (KFLG) |
Arrival
| Time | 2026-05-05 03:02 |
|---|---|
| Airport | Dallas Fort Worth International Airport (KDFW) |
| Time | Latitude | Longitude | Altitude | Speed | Heading |
|---|---|---|---|---|---|
| 2026-05-05 01:34 | 34.88632 | -111.42208 | 19861 ft | 418 kts | 89° |
| 2026-05-05 01:34 | 34.88795 | -111.38655 | 20353 ft | 423 kts | 89° |
| 2026-05-05 01:35 | 34.88978 | -111.35055 | 20826 ft | 428 kts | 89° |
| 2026-05-05 01:35 | 34.89168 | -111.31429 | 21319 ft | 432 kts | 89° |
| 2026-05-05 01:35 | 34.89358 | -111.27754 | 21790 ft | 437 kts | 89° |
| 2026-05-05 01:35 | 34.89549 | -111.24037 | 22246 ft | 442 kts | 89° |
| 2026-05-05 01:36 | 34.89741 | -111.20283 | 22702 ft | 446 kts | 90° |
| 2026-05-05 01:36 | 34.89933 | -111.16492 | 23146 ft | 451 kts | 90° |
| 2026-05-05 01:36 | 34.90128 | -111.12661 | 23554 ft | 455 kts | 90° |
| 2026-05-05 01:36 | 34.90324 | -111.08800 | 23954 ft | 458 kts | 90° |
| 2026-05-05 01:37 | 34.90517 | -111.04964 | 24346 ft | 461 kts | 90° |
| 2026-05-05 01:37 | 34.90712 | -111.01057 | 24738 ft | 464 kts | 90° |
| 2026-05-05 01:37 | 34.90907 | -110.97111 | 25120 ft | 467 kts | 90° |
| 2026-05-05 01:37 | 34.91100 | -110.93144 | 25471 ft | 470 kts | 90° |
| 2026-05-05 01:38 | 34.91297 | -110.89157 | 25851 ft | 473 kts | 90° |
| 2026-05-05 01:38 | 34.91492 | -110.85143 | 26200 ft | 476 kts | 90° |
| 2026-05-05 01:38 | 34.91687 | -110.81104 | 26552 ft | 479 kts | 90° |
| 2026-05-05 01:38 | 34.91879 | -110.77047 | 26890 ft | 482 kts | 91° |
| 2026-05-05 01:39 | 34.92075 | -110.72960 | 27235 ft | 484 kts | 91° |
| 2026-05-05 01:39 | 34.92269 | -110.68852 | 27563 ft | 487 kts | 91° |
| 2026-05-05 01:39 | 34.92462 | -110.64726 | 27876 ft | 489 kts | 91° |
| 2026-05-05 01:39 | 34.92656 | -110.60574 | 28170 ft | 492 kts | 91° |
| 2026-05-05 01:40 | 34.92848 | -110.56400 | 28469 ft | 494 kts | 91° |
| 2026-05-05 01:40 | 34.93041 | -110.52207 | 28737 ft | 497 kts | 91° |
| 2026-05-05 01:40 | 34.93233 | -110.47988 | 29013 ft | 499 kts | 91° |
| 2026-05-05 01:40 | 34.93424 | -110.43750 | 29273 ft | 502 kts | 91° |
| 2026-05-05 01:41 | 34.93616 | -110.39499 | 29529 ft | 504 kts | 91° |
| 2026-05-05 01:41 | 34.93806 | -110.35218 | 29788 ft | 506 kts | 91° |
| 2026-05-05 01:41 | 34.93996 | -110.30923 | 29999 ft | 509 kts | 92° |
| 2026-05-05 01:41 | 34.94182 | -110.26665 | 30190 ft | 512 kts | 91° |
| 2026-05-05 01:42 | 34.94371 | -110.22326 | 30380 ft | 514 kts | 91° |
| 2026-05-05 01:42 | 34.94559 | -110.17959 | 30567 ft | 517 kts | 91° |
| 2026-05-05 01:42 | 34.94747 | -110.13574 | 30747 ft | 520 kts | 92° |
| 2026-05-05 01:42 | 34.94932 | -110.09165 | 30932 ft | 522 kts | 91° |
| 2026-05-05 01:43 | 34.95120 | -110.04736 | 31105 ft | 525 kts | 91° |
| 2026-05-05 01:43 | 34.95306 | -110.00286 | 31274 ft | 527 kts | 91° |
| 2026-05-05 01:43 | 34.95490 | -109.95816 | 31443 ft | 529 kts | 91° |
| 2026-05-05 01:43 | 34.95675 | -109.91312 | 31510 ft | 533 kts | 91° |
| 2026-05-05 01:44 | 34.95860 | -109.86795 | 31653 ft | 534 kts | 91° |
| 2026-05-05 01:44 | 34.96042 | -109.82271 | 31797 ft | 535 kts | 91° |
| 2026-05-05 01:44 | 34.96223 | -109.77741 | 31952 ft | 535 kts | 91° |
| 2026-05-05 01:44 | 34.96402 | -109.73208 | 32094 ft | 536 kts | 91° |
| 2026-05-05 01:45 | 34.96580 | -109.68663 | 32242 ft | 536 kts | 91° |
| 2026-05-05 01:45 | 34.96756 | -109.64122 | 32370 ft | 537 kts | 91° |
| 2026-05-05 01:45 | 34.96932 | -109.59570 | 32504 ft | 538 kts | 91° |
| 2026-05-05 01:45 | 34.97103 | -109.55015 | 32642 ft | 538 kts | 91° |
| 2026-05-05 01:46 | 34.97276 | -109.50450 | 32788 ft | 539 kts | 91° |
| 2026-05-05 01:46 | 34.97446 | -109.45889 | 32933 ft | 539 kts | 91° |
| 2026-05-05 01:46 | 34.97614 | -109.41308 | 33064 ft | 540 kts | 91° |
| 2026-05-05 01:46 | 34.97780 | -109.36735 | 33198 ft | 540 kts | 91° |
| 2026-05-05 01:47 | 34.97948 | -109.32152 | 33351 ft | 541 kts | 91° |
| 2026-05-05 01:47 | 34.98112 | -109.27564 | 33491 ft | 542 kts | 91° |
| 2026-05-05 01:47 | 34.98274 | -109.22968 | 33654 ft | 543 kts | 91° |
| 2026-05-05 01:47 | 34.98436 | -109.18373 | 33809 ft | 543 kts | 91° |
| 2026-05-05 01:48 | 34.98597 | -109.13761 | 33933 ft | 545 kts | 91° |
| 2026-05-05 01:48 | 34.98755 | -109.09149 | 34088 ft | 545 kts | 91° |
| 2026-05-05 01:48 | 34.98910 | -109.04521 | 34215 ft | 546 kts | 91° |
| 2026-05-05 01:48 | 34.99067 | -108.99891 | 34329 ft | 547 kts | 91° |
| 2026-05-05 01:49 | 34.99217 | -108.95259 | 34430 ft | 547 kts | 91° |
| 2026-05-05 01:49 | 34.99368 | -108.90680 | 34515 ft | 548 kts | 91° |
| 2026-05-05 01:49 | 34.99521 | -108.86030 | 34627 ft | 549 kts | 91° |
| 2026-05-05 01:49 | 34.99668 | -108.81372 | 34689 ft | 549 kts | 91° |
| 2026-05-05 01:50 | 34.99964 | -108.72059 | 34759 ft | 551 kts | 91° |
| 2026-05-05 01:50 | 35.00247 | -108.62712 | 34865 ft | 552 kts | 91° |
| 2026-05-05 01:51 | 35.00529 | -108.53356 | 34978 ft | 552 kts | 91° |
| 2026-05-05 01:51 | 35.00803 | -108.43989 | 35110 ft | 553 kts | 91° |
| 2026-05-05 01:52 | 35.01067 | -108.34615 | 35306 ft | 553 kts | 91° |
| 2026-05-05 01:52 | 35.01323 | -108.25248 | 35524 ft | 553 kts | 91° |
| 2026-05-05 01:53 | 35.01452 | -108.20562 | 35650 ft | 553 kts | 91° |
| 2026-05-05 01:53 | 35.01576 | -108.15877 | 35780 ft | 553 kts | 91° |
| 2026-05-05 01:53 | 35.01701 | -108.11187 | 35893 ft | 553 kts | 91° |
| 2026-05-05 01:53 | 35.01822 | -108.06497 | 36052 ft | 552 kts | 91° |
| 2026-05-05 01:54 | 35.02056 | -107.97133 | 36279 ft | 552 kts | 91° |
| 2026-05-05 01:54 | 35.02165 | -107.92455 | 36444 ft | 551 kts | 91° |
| 2026-05-05 01:54 | 35.02281 | -107.87773 | 36447 ft | 553 kts | 91° |
| 2026-05-05 01:55 | 35.02506 | -107.78435 | 36498 ft | 555 kts | 91° |
| 2026-05-05 01:55 | 35.02721 | -107.69035 | 36563 ft | 556 kts | 91° |
| 2026-05-05 01:56 | 35.02930 | -107.59610 | 36631 ft | 555 kts | 91° |
| 2026-05-05 01:56 | 35.03130 | -107.50176 | 36628 ft | 557 kts | 92° |
| 2026-05-05 01:57 | 35.03326 | -107.40726 | 36694 ft | 558 kts | 91° |
| 2026-05-05 01:57 | 35.03512 | -107.31265 | 36777 ft | 558 kts | 91° |
| 2026-05-05 01:58 | 35.03695 | -107.21775 | 36865 ft | 559 kts | 91° |
| 2026-05-05 01:58 | 35.03783 | -107.17029 | 36983 ft | 559 kts | 92° |
| 2026-05-05 01:58 | 35.03868 | -107.12285 | 37082 ft | 559 kts | 92° |
| 2026-05-05 01:59 | 35.04034 | -107.02795 | 37225 ft | 560 kts | 92° |
| 2026-05-05 01:59 | 35.04194 | -106.93295 | 37332 ft | 561 kts | 92° |
| 2026-05-05 02:00 | 35.04271 | -106.88538 | 37448 ft | 560 kts | 92° |
| 2026-05-05 02:00 | 35.04347 | -106.83780 | 37500 ft | 561 kts | 92° |
| 2026-05-05 02:00 | 35.03671 | -106.74399 | 37476 ft | 552 kts | 108° |
| 2026-05-05 02:01 | 35.02179 | -106.65252 | 37515 ft | 556 kts | 104° |
| 2026-05-05 02:01 | 35.01145 | -106.55868 | 37605 ft | 558 kts | 102° |
| 2026-05-05 02:02 | 35.00056 | -106.46502 | 37671 ft | 557 kts | 104° |
| 2026-05-05 02:02 | 34.98857 | -106.37170 | 37716 ft | 556 kts | 104° |
| 2026-05-05 02:03 | 34.97654 | -106.27847 | 37714 ft | 556 kts | 104° |
| 2026-05-05 02:03 | 34.96457 | -106.18516 | 37691 ft | 557 kts | 103° |
| 2026-05-05 02:04 | 34.95252 | -106.09178 | 37719 ft | 558 kts | 103° |
| 2026-05-05 02:04 | 34.94151 | -105.99828 | 37865 ft | 556 kts | 102° |
| 2026-05-05 02:05 | 34.92992 | -105.90519 | 37944 ft | 555 kts | 103° |
| 2026-05-05 02:05 | 34.91797 | -105.81232 | 38081 ft | 554 kts | 103° |
| 2026-05-05 02:06 | 34.90602 | -105.71969 | 38210 ft | 552 kts | 103° |
| 2026-05-05 02:06 | 34.89396 | -105.62742 | 38306 ft | 551 kts | 103° |
| 2026-05-05 02:07 | 34.88189 | -105.53547 | 38402 ft | 549 kts | 103° |
| 2026-05-05 02:07 | 34.86982 | -105.44412 | 38423 ft | 549 kts | 103° |
| 2026-05-05 02:08 | 34.85761 | -105.35252 | 38497 ft | 547 kts | 103° |
| 2026-05-05 02:08 | 34.84543 | -105.26138 | 38670 ft | 543 kts | 103° |
| 2026-05-05 02:09 | 34.83326 | -105.17079 | 38721 ft | 542 kts | 103° |
| 2026-05-05 02:09 | 34.82099 | -105.08019 | 38730 ft | 543 kts | 103° |
| 2026-05-05 02:10 | 34.80865 | -104.98950 | 38748 ft | 544 kts | 103° |
| 2026-05-05 02:10 | 34.79622 | -104.89867 | 38770 ft | 544 kts | 103° |
| 2026-05-05 02:11 | 34.78369 | -104.80771 | 38791 ft | 545 kts | 103° |
| 2026-05-05 02:11 | 34.77110 | -104.71674 | 38806 ft | 546 kts | 103° |
| 2026-05-05 02:12 | 34.75417 | -104.59534 | 38797 ft | 547 kts | 103° |
| 2026-05-05 02:13 | 34.74133 | -104.50400 | 38769 ft | 548 kts | 103° |
| 2026-05-05 02:13 | 34.72844 | -104.41258 | 38722 ft | 549 kts | 103° |
| 2026-05-05 02:14 | 34.71544 | -104.32104 | 38681 ft | 550 kts | 103° |
| 2026-05-05 02:14 | 34.70239 | -104.22939 | 38666 ft | 551 kts | 103° |
| 2026-05-05 02:15 | 34.68922 | -104.13761 | 38665 ft | 552 kts | 103° |
| 2026-05-05 02:15 | 34.67597 | -104.04576 | 38672 ft | 553 kts | 103° |
| 2026-05-05 02:16 | 34.66262 | -103.95367 | 38661 ft | 554 kts | 103° |
| 2026-05-05 02:16 | 34.64916 | -103.86150 | 38659 ft | 554 kts | 103° |
| 2026-05-05 02:17 | 34.63562 | -103.76925 | 38664 ft | 555 kts | 103° |
| 2026-05-05 02:17 | 34.62209 | -103.67752 | 38670 ft | 556 kts | 103° |
| 2026-05-05 02:18 | 34.60841 | -103.58513 | 38706 ft | 557 kts | 103° |
| 2026-05-05 02:18 | 34.59460 | -103.49254 | 38743 ft | 558 kts | 103° |
| 2026-05-05 02:19 | 34.58071 | -103.39992 | 38765 ft | 558 kts | 103° |
| 2026-05-05 02:19 | 34.56672 | -103.30717 | 38785 ft | 559 kts | 103° |
| 2026-05-05 02:20 | 34.55266 | -103.21433 | 38819 ft | 560 kts | 103° |
| 2026-05-05 02:20 | 34.53852 | -103.12141 | 38834 ft | 561 kts | 103° |
| 2026-05-05 02:21 | 34.52426 | -103.02839 | 38843 ft | 561 kts | 103° |
| 2026-05-05 02:21 | 34.50993 | -102.93527 | 38832 ft | 562 kts | 103° |
| 2026-05-05 02:22 | 34.49550 | -102.84218 | 38803 ft | 563 kts | 103° |
| 2026-05-05 02:22 | 34.48521 | -102.74792 | 38772 ft | 565 kts | 96° |
| 2026-05-05 02:23 | 34.47636 | -102.65332 | 38730 ft | 565 kts | 100° |
| 2026-05-05 02:23 | 34.46558 | -102.55903 | 38722 ft | 565 kts | 99° |
| 2026-05-05 02:24 | 34.45574 | -102.46451 | 38714 ft | 566 kts | 99° |
| 2026-05-05 02:24 | 34.44574 | -102.36984 | 38709 ft | 567 kts | 99° |
| 2026-05-05 02:25 | 34.43571 | -102.27515 | 38701 ft | 567 kts | 99° |
| 2026-05-05 02:25 | 34.42568 | -102.18092 | 38693 ft | 568 kts | 99° |
| 2026-05-05 02:26 | 34.41546 | -102.08595 | 38689 ft | 569 kts | 99° |
| 2026-05-05 02:26 | 34.40516 | -101.99101 | 38696 ft | 569 kts | 99° |
| 2026-05-05 02:27 | 34.39478 | -101.89598 | 38714 ft | 570 kts | 99° |
| 2026-05-05 02:27 | 34.38434 | -101.80079 | 38729 ft | 570 kts | 99° |
| 2026-05-05 02:28 | 34.37380 | -101.70563 | 38736 ft | 571 kts | 99° |
| 2026-05-05 02:28 | 34.36316 | -101.61040 | 38732 ft | 571 kts | 99° |
| 2026-05-05 02:29 | 34.35245 | -101.51508 | 38715 ft | 572 kts | 99° |
| 2026-05-05 02:29 | 34.34168 | -101.41969 | 38685 ft | 572 kts | 99° |
| 2026-05-05 02:30 | 34.33080 | -101.32428 | 38656 ft | 573 kts | 99° |
| 2026-05-05 02:30 | 34.31985 | -101.22880 | 38652 ft | 573 kts | 99° |
| 2026-05-05 02:31 | 34.30883 | -101.13326 | 38648 ft | 573 kts | 98° |
| 2026-05-05 02:31 | 34.29759 | -101.03780 | 38643 ft | 573 kts | 98° |
| 2026-05-05 02:32 | 34.28666 | -100.94233 | 38643 ft | 573 kts | 98° |
| 2026-05-05 02:32 | 34.27529 | -100.84693 | 38638 ft | 573 kts | 98° |
| 2026-05-05 02:33 | 34.26400 | -100.75158 | 38631 ft | 573 kts | 98° |
| 2026-05-05 02:33 | 34.25257 | -100.65622 | 38626 ft | 573 kts | 98° |
| 2026-05-05 02:34 | 34.24111 | -100.56103 | 38647 ft | 573 kts | 98° |
| 2026-05-05 02:34 | 34.22956 | -100.46568 | 38657 ft | 573 kts | 98° |
| 2026-05-05 02:35 | 34.21802 | -100.37099 | 38660 ft | 573 kts | 98° |
| 2026-05-05 02:35 | 34.20620 | -100.27578 | 38661 ft | 573 kts | 101° |
| 2026-05-05 02:36 | 34.18441 | -100.18350 | 38647 ft | 569 kts | 115° |
| 2026-05-05 02:36 | 34.15494 | -100.09494 | 38627 ft | 569 kts | 115° |
| 2026-05-05 02:37 | 34.14121 | -100.05014 | 38620 ft | 570 kts | 112° |
| 2026-05-05 02:37 | 34.10128 | -99.91476 | 38620 ft | 571 kts | 112° |
| 2026-05-05 02:38 | 34.07411 | -99.82468 | 38613 ft | 571 kts | 113° |
| 2026-05-05 02:38 | 34.04667 | -99.73474 | 38610 ft | 572 kts | 113° |
| 2026-05-05 02:39 | 34.01934 | -99.64532 | 38613 ft | 572 kts | 113° |
| 2026-05-05 02:39 | 33.99170 | -99.55530 | 38607 ft | 573 kts | 113° |
| 2026-05-05 02:40 | 33.96395 | -99.46530 | 38618 ft | 573 kts | 113° |
| 2026-05-05 02:40 | 33.93602 | -99.37538 | 38617 ft | 574 kts | 113° |
| 2026-05-05 02:41 | 33.90799 | -99.28541 | 38616 ft | 574 kts | 113° |
| 2026-05-05 02:41 | 33.87987 | -99.19538 | 38623 ft | 575 kts | 113° |
| 2026-05-05 02:42 | 33.85168 | -99.10539 | 38627 ft | 575 kts | 113° |
| 2026-05-05 02:42 | 33.82341 | -99.01541 | 38633 ft | 575 kts | 113° |
| 2026-05-05 02:43 | 33.79502 | -98.92539 | 38644 ft | 576 kts | 113° |
| 2026-05-05 02:43 | 33.76655 | -98.83532 | 38667 ft | 576 kts | 113° |
| 2026-05-05 02:44 | 33.73818 | -98.74596 | 38683 ft | 576 kts | 114° |
| 2026-05-05 02:44 | 33.72396 | -98.70156 | 38427 ft | 566 kts | 114° |
| 2026-05-05 02:44 | 33.70983 | -98.65757 | 37760 ft | 563 kts | 113° |
| 2026-05-05 02:44 | 33.69580 | -98.61383 | 37048 ft | 560 kts | 113° |
| 2026-05-05 02:45 | 33.68193 | -98.57016 | 36355 ft | 558 kts | 112° |
| 2026-05-05 02:45 | 33.66821 | -98.52667 | 35580 ft | 557 kts | 112° |
| 2026-05-05 02:45 | 33.65445 | -98.48313 | 34749 ft | 558 kts | 112° |
| 2026-05-05 02:45 | 33.64062 | -98.43955 | 33940 ft | 558 kts | 111° |
| 2026-05-05 02:46 | 33.62686 | -98.39604 | 33073 ft | 557 kts | 111° |
| 2026-05-05 02:46 | 33.61313 | -98.35265 | 32159 ft | 556 kts | 111° |
| 2026-05-05 02:46 | 33.59933 | -98.30934 | 31218 ft | 555 kts | 111° |
| 2026-05-05 02:46 | 33.58560 | -98.26619 | 30325 ft | 552 kts | 111° |
| 2026-05-05 02:47 | 33.57197 | -98.22343 | 29462 ft | 547 kts | 111° |
| 2026-05-05 02:47 | 33.55839 | -98.18106 | 28520 ft | 542 kts | 111° |
| 2026-05-05 02:47 | 33.54495 | -98.13910 | 27585 ft | 537 kts | 111° |
| 2026-05-05 02:47 | 33.53164 | -98.09751 | 26721 ft | 533 kts | 111° |
| 2026-05-05 02:48 | 33.51843 | -98.05639 | 25840 ft | 525 kts | 111° |
| 2026-05-05 02:48 | 33.50540 | -98.01587 | 25006 ft | 517 kts | 111° |
| 2026-05-05 02:48 | 33.49254 | -97.97599 | 24187 ft | 510 kts | 111° |
| 2026-05-05 02:48 | 33.47983 | -97.93659 | 23391 ft | 503 kts | 111° |
| 2026-05-05 02:49 | 33.46733 | -97.89781 | 22466 ft | 496 kts | 112° |
| 2026-05-05 02:49 | 33.45497 | -97.85959 | 21552 ft | 488 kts | 112° |
| 2026-05-05 02:49 | 33.44278 | -97.82198 | 20665 ft | 480 kts | 112° |
| 2026-05-05 02:49 | 33.43082 | -97.78504 | 19800 ft | 472 kts | 112° |
| 2026-05-05 02:50 | 33.41919 | -97.74925 | 18988 ft | 463 kts | 112° |
| 2026-05-05 02:50 | 33.40767 | -97.71375 | 18168 ft | 450 kts | 112° |
| 2026-05-05 02:50 | 33.39647 | -97.67936 | 17250 ft | 437 kts | 112° |
| 2026-05-05 02:50 | 33.38550 | -97.64601 | 16346 ft | 425 kts | 115° |
| 2026-05-05 02:51 | 33.37436 | -97.61380 | 15505 ft | 414 kts | 110° |
| 2026-05-05 02:51 | 33.36532 | -97.58188 | 14990 ft | 396 kts | 109° |
| 2026-05-05 02:51 | 33.35682 | -97.55125 | 14515 ft | 381 kts | 111° |
| 2026-05-05 02:51 | 33.34761 | -97.52207 | 14036 ft | 368 kts | 113° |
| 2026-05-05 02:52 | 33.33815 | -97.49404 | 13564 ft | 358 kts | 113° |
| 2026-05-05 02:52 | 33.32897 | -97.46676 | 13033 ft | 350 kts | 113° |
| 2026-05-05 02:52 | 33.32021 | -97.43996 | 12518 ft | 343 kts | 112° |
| 2026-05-05 02:52 | 33.31185 | -97.41359 | 12008 ft | 336 kts | 112° |
| 2026-05-05 02:53 | 33.30368 | -97.38759 | 11511 ft | 332 kts | 112° |
| 2026-05-05 02:53 | 33.29554 | -97.36174 | 11122 ft | 333 kts | 112° |
| 2026-05-05 02:53 | 33.28745 | -97.33602 | 10840 ft | 330 kts | 112° |
| 2026-05-05 02:53 | 33.27941 | -97.31048 | 10565 ft | 327 kts | 112° |
| 2026-05-05 02:54 | 33.27146 | -97.28518 | 10268 ft | 324 kts | 113° |
| 2026-05-05 02:54 | 33.26363 | -97.26036 | 10097 ft | 316 kts | 113° |
| 2026-05-05 02:54 | 33.25589 | -97.23588 | 9696 ft | 313 kts | 113° |
| 2026-05-05 02:54 | 33.24824 | -97.21162 | 9256 ft | 311 kts | 113° |
| 2026-05-05 02:55 | 33.24065 | -97.18759 | 8828 ft | 308 kts | 113° |
| 2026-05-05 02:55 | 33.23069 | -97.16543 | 8352 ft | 299 kts | 136° |
| 2026-05-05 02:55 | 33.21626 | -97.14801 | 7915 ft | 293 kts | 141° |
| 2026-05-05 02:55 | 33.20154 | -97.13140 | 7488 ft | 289 kts | 142° |
| 2026-05-05 02:56 | 33.18684 | -97.11523 | 7085 ft | 286 kts | 142° |
| 2026-05-05 02:56 | 33.17222 | -97.09937 | 6649 ft | 283 kts | 142° |
| 2026-05-05 02:56 | 33.15767 | -97.08373 | 6214 ft | 280 kts | 143° |
| 2026-05-05 02:56 | 33.14331 | -97.06833 | 5778 ft | 275 kts | 143° |
| 2026-05-05 02:57 | 33.12877 | -97.05396 | 5294 ft | 266 kts | 155° |
| 2026-05-05 02:57 | 33.11177 | -97.04798 | 4850 ft | 249 kts | 185° |
| 2026-05-05 02:57 | 33.09552 | -97.05277 | 4386 ft | 238 kts | 207° |
| 2026-05-05 02:57 | 33.08096 | -97.06143 | 4021 ft | 230 kts | 210° |
| 2026-05-05 02:58 | 33.06692 | -97.07037 | 3575 ft | 226 kts | 204° |
| 2026-05-05 02:58 | 33.05160 | -97.07334 | 3160 ft | 223 kts | 182° |
| 2026-05-05 02:58 | 33.03680 | -97.07267 | 3138 ft | 204 kts | 180° |
| 2026-05-05 02:58 | 33.02381 | -97.06839 | 3046 ft | 186 kts | 160° |
| 2026-05-05 02:59 | 33.01668 | -97.06323 | 2738 ft | 178 kts | 157° |
| 2026-05-05 02:59 | 33.00298 | -97.05562 | 2321 ft | 146 kts | 179° |
| 2026-05-05 02:59 | 32.99333 | -97.05501 | 2126 ft | 131 kts | 179° |
| 2026-05-05 02:59 | 32.98562 | -97.05433 | 1963 ft | 112 kts | 181° |
| 2026-05-05 03:00 | 32.97760 | -97.05408 | 1829 ft | 116 kts | 182° |
| 2026-05-05 03:00 | 32.96944 | -97.05406 | 1699 ft | 118 kts | 182° |
| 2026-05-05 03:00 | 32.96398 | -97.05414 | 1586 ft | 113 kts | 181° |
| 2026-05-05 03:00 | 32.95614 | -97.05428 | 1378 ft | 116 kts | 179° |
| 2026-05-05 03:01 | 32.94743 | -97.05462 | 1171 ft | 131 kts | 183° |
| 2026-05-05 03:01 | 32.93860 | -97.05439 | 1176 ft | 139 kts | 176° |
| 2026-05-05 03:01 | 32.92960 | -97.05462 | 1015 ft | 124 kts | 180° |
| 2026-05-05 03:01 | 32.92033 | -97.05464 | 772 ft | 137 kts | 179° |
| 2026-05-05 03:02 | 32.91162 | -97.05462 | 615 ft | 111 kts | 179° |
| 2026-05-05 03:02 | 32.90571 | -97.05457 | 618 ft | 62 kts | 180° |
| 2026-05-05 03:02 | 32.90280 | -97.05467 | 618 ft | 30 kts | 181° |
| 2026-05-05 03:02 | 32.90076 | -97.05450 | 625 ft | 28 kts | 169° |
| 2026-05-05 03:03 | 32.89902 | -97.05367 | 624 ft | 26 kts | 155° |
| 2026-05-05 03:03 | 32.89737 | -97.05283 | 618 ft | 26 kts | 180° |
| 2026-05-05 03:03 | 32.89558 | -97.05281 | 619 ft | 26 kts | 180° |
| 2026-05-05 03:03 | 32.89382 | -97.05280 | 617 ft | 25 kts | 180° |
| 2026-05-05 03:04 | 32.89206 | -97.05281 | 617 ft | 25 kts | 180° |
| 2026-05-05 03:04 | 32.89033 | -97.05282 | 618 ft | 25 kts | 180° |
| 2026-05-05 03:04 | 32.88861 | -97.05282 | 619 ft | 25 kts | 180° |
| 2026-05-05 03:04 | 32.88693 | -97.05283 | 614 ft | 23 kts | 180° |
| 2026-05-05 03:05 | 32.88606 | -97.05170 | 619 ft | 21 kts | 91° |
| 2026-05-05 03:05 | 32.88605 | -97.04990 | 614 ft | 22 kts | 90° |
| 2026-05-05 03:05 | 32.88604 | -97.04932 | 614 ft | 1 kts | 91° |
| 2026-05-05 03:05 | 32.88604 | -97.04921 | 614 ft | 2 kts | 91° |
| 2026-05-05 03:06 | 32.88604 | -97.04897 | 614 ft | 4 kts | 91° |
| 2026-05-05 03:06 | 32.88603 | -97.04861 | 614 ft | 5 kts | 91° |
| 2026-05-05 03:06 | 32.88586 | -97.04792 | 621 ft | 11 kts | 142° |
| 2026-05-05 03:06 | 32.88509 | -97.04734 | 617 ft | 15 kts | 112° |
| 2026-05-05 03:07 | 32.88503 | -97.04601 | 617 ft | 17 kts | 89° |
| 2026-05-05 03:07 | 32.88502 | -97.04460 | 617 ft | 17 kts | 90° |
| 2026-05-05 03:07 | 32.88501 | -97.04309 | 619 ft | 20 kts | 90° |
| 2026-05-05 03:07 | 32.88499 | -97.04138 | 619 ft | 21 kts | 91° |
| 2026-05-05 03:08 | 32.88499 | -97.03963 | 618 ft | 22 kts | 90° |
| 2026-05-05 03:08 | 32.88499 | -97.03782 | 616 ft | 22 kts | 90° |
| 2026-05-05 03:08 | 32.88498 | -97.03618 | 614 ft | 17 kts | 90° |
| 2026-05-05 03:08 | 32.88508 | -97.03507 | 619 ft | 11 kts | 43° |
| 2026-05-05 03:09 | 32.88598 | -97.03496 | 622 ft | 15 kts | 341° |
| 2026-05-05 03:09 | 32.88687 | -97.03565 | 621 ft | 16 kts | 332° |
| 2026-05-05 03:09 | 32.88766 | -97.03576 | 626 ft | 11 kts | 33° |
| 2026-05-05 03:09 | 32.88827 | -97.03523 | 620 ft | 10 kts | 33° |
| 2026-05-05 03:10 | 32.88863 | -97.03488 | 621 ft | 3 kts | 89° |
| 2026-05-05 03:10 | 32.88855 | -97.03467 | 620 ft | 3 kts | 116° |
| 2026-05-05 03:10 | 32.88849 | -97.03451 | 621 ft | 0 kts | 114° |
| 2026-05-05 03:10 | 32.88848 | -97.03450 | 621 ft | 0 kts | 114° |